Time;durP1;ratioP1;P1;durP2;ratioP2;P2;SDS_P1;SDS_P2;PMS_P1;PMS_P2;Temp;Humidity;BMP_temperature;BMP_pressure;BME280_temperature;BME280_humidity;BME280_pressure;Samples;Min_cycle;Max_cycle;Signal;HPM_P1;HPM_P2
2021/03/18 00:00:50;;;;;;;53.63;25.50;;;3.10;93.80;;;;;;5055153;28;20033;-75
2021/03/18 00:03:19;;;;;;;66.07;30.90;;;3.10;93.90;;;;;;5053355;28;20021;-75
2021/03/18 00:05:46;;;;;;;65.15;28.23;;;3.10;93.90;;;;;;5053085;28;20025;-74
2021/03/18 00:08:12;;;;;;;60.33;26.63;;;3.10;93.80;;;;;;5054246;28;20360;-75
2021/03/18 00:10:38;;;;;;;54.95;26.30;;;3.10;94.00;;;;;;5054566;28;20060;-74
2021/03/18 00:13:07;;;;;;;52.50;25.88;;;3.10;93.90;;;;;;5053039;28;20064;-75
2021/03/18 00:15:34;;;;;;;54.25;26.25;;;3.10;93.90;;;;;;5053992;28;20021;-75
2021/03/18 00:18:00;;;;;;;51.55;22.52;;;3.10;93.90;;;;;;5053558;28;20036;-75
2021/03/18 00:20:26;;;;;;;44.55;23.42;;;3.10;94.00;;;;;;5055065;28;20033;-75
2021/03/18 00:22:52;;;;;;;43.30;22.35;;;3.10;94.00;;;;;;5052704;28;20024;-72
2021/03/18 00:25:18;;;;;;;44.75;21.17;;;3.10;94.10;;;;;;5053661;28;20472;-75
2021/03/18 00:27:45;;;;;;;42.80;22.38;;;3.10;94.30;;;;;;5053629;28;20033;-74
2021/03/18 00:30:14;;;;;;;47.08;22.33;;;3.10;94.00;;;;;;5053439;28;20111;-75
2021/03/18 00:32:40;;;;;;;40.30;19.52;;;3.10;94.00;;;;;;5054591;28;20468;-75
2021/03/18 00:35:08;;;;;;;38.80;20.50;;;3.10;94.10;;;;;;5052738;28;20068;-75
2021/03/18 00:37:35;;;;;;;44.05;20.25;;;3.10;94.30;;;;;;5054112;28;20033;-75
2021/03/18 00:40:03;;;;;;;39.15;21.48;;;3.10;94.00;;;;;;5052740;28;20033;-74
2021/03/18 00:42:29;;;;;;;35.22;20.17;;;3.10;94.10;;;;;;5053040;28;20446;-75
2021/03/18 00:44:54;;;;;;;38.10;20.35;;;3.10;94.10;;;;;;5052816;28;20120;-75
2021/03/18 00:47:20;;;;;;;45.17;19.70;;;3.20;94.00;;;;;;5054190;28;20036;-75
2021/03/18 00:49:45;;;;;;;31.55;18.33;;;3.20;94.00;;;;;;5052922;28;20032;-74
2021/03/18 00:52:14;;;;;;;44.00;21.42;;;3.10;94.00;;;;;;5052589;28;20112;-74
2021/03/18 00:54:40;;;;;;;35.72;20.30;;;3.10;94.10;;;;;;5053181;28;20421;-74
2021/03/18 00:57:06;;;;;;;39.13;20.55;;;3.20;94.20;;;;;;5053756;28;20023;-75
2021/03/18 00:59:32;;;;;;;43.40;20.20;;;3.20;94.20;;;;;;5052606;28;20044;-75
2021/03/18 01:01:58;;;;;;;42.88;19.90;;;3.20;94.20;;;;;;5052594;28;20021;-75
2021/03/18 01:04:23;;;;;;;45.85;20.55;;;3.20;94.10;;;;;;5054025;28;20460;-74
2021/03/18 01:06:49;;;;;;;36.97;19.85;;;3.20;94.00;;;;;;5053873;28;20048;-74
2021/03/18 01:09:15;;;;;;;37.10;20.23;;;3.20;93.90;;;;;;5052179;28;20111;-74
2021/03/18 01:11:42;;;;;;;38.47;19.65;;;3.20;93.90;;;;;;5053734;28;20029;-74
2021/03/18 01:14:10;;;;;;;43.40;20.20;;;3.20;94.00;;;;;;5052611;28;20029;-74
2021/03/18 01:16:47;;;;;;;43.47;20.83;;;3.20;94.00;;;;;;5052470;28;20028;-74
2021/03/18 01:19:14;;;;;;;42.83;22.17;;;3.20;94.10;;;;;;5052162;28;20033;-72
2021/03/18 01:21:47;;;;;;;40.67;20.42;;;3.20;94.00;;;;;;5039780;28;20029;-74
2021/03/18 01:24:14;;;;;;;45.00;21.55;;;3.20;93.90;;;;;;5052488;28;20128;-74
2021/03/18 01:26:41;;;;;;;42.13;21.48;;;3.20;93.90;;;;;;5052053;28;20021;-74
2021/03/18 01:29:08;;;;;;;41.97;21.40;;;3.20;94.00;;;;;;5051998;28;20031;-74
2021/03/18 01:31:34;;;;;;;47.08;22.67;;;3.20;94.00;;;;;;5051963;28;20170;-74
2021/03/18 01:34:00;;;;;;;49.60;23.23;;;3.20;93.90;;;;;;5052181;28;20029;-74
2021/03/18 01:36:26;;;;;;;49.53;23.38;;;3.20;93.90;;;;;;5052002;28;20025;-74
2021/03/18 01:38:52;;;;;;;59.13;28.05;;;3.20;93.90;;;;;;5052018;28;20071;-71
2021/03/18 01:41:21;;;;;;;62.13;29.17;;;3.20;93.90;;;;;;5052260;28;20119;-74
2021/03/18 01:43:47;;;;;;;57.65;26.90;;;3.20;93.90;;;;;;5038336;28;20090;-74
2021/03/18 01:46:13;;;;;;;53.33;25.35;;;3.20;93.90;;;;;;5051995;28;20048;-75
2021/03/18 01:48:40;;;;;;;48.08;24.10;;;3.20;93.80;;;;;;5051728;28;20017;-74
2021/03/18 01:51:06;;;;;;;43.15;22.45;;;3.10;93.80;;;;;;5051357;28;20028;-74
2021/03/18 01:53:34;;;;;;;53.40;24.02;;;3.10;93.80;;;;;;5047786;28;20086;-75
2021/03/18 01:56:02;;;;;;;51.20;23.60;;;3.10;93.80;;;;;;5051536;28;20494;-74
2021/03/18 01:58:28;;;;;;;51.67;23.83;;;3.10;94.00;;;;;;5051514;28;20078;-75
2021/03/18 02:00:58;;;;;;;56.50;24.35;;;3.10;94.00;;;;;;5051193;28;20025;-73
2021/03/18 02:03:24;;;;;;;45.05;23.38;;;3.10;93.90;;;;;;5051960;28;20387;-74
2021/03/18 02:05:51;;;;;;;52.22;25.73;;;3.00;94.00;;;;;;5052064;28;20033;-72
2021/03/18 02:08:17;;;;;;;51.65;24.67;;;3.00;93.90;;;;;;5051669;28;20112;-72
2021/03/18 02:10:43;;;;;;;51.70;23.75;;;3.00;93.90;;;;;;5052575;28;20029;-73
2021/03/18 02:13:11;;;;;;;56.92;25.48;;;3.00;93.90;;;;;;5051193;28;20033;-73
2021/03/18 02:15:45;;;;;;;46.58;25.52;;;2.90;93.90;;;;;;5052536;28;20021;-72
2021/03/18 02:18:47;;;;;;;46.88;26.50;;;2.90;94.00;;;;;;5051543;28;20025;-73
2021/03/18 02:21:31;;;;;;;55.67;26.75;;;2.90;94.00;;;;;;5042378;28;20029;-73
2021/03/18 02:24:34;;;;;;;48.67;25.52;;;2.90;94.00;;;;;;5052062;28;20021;-73
2021/03/18 02:27:11;;;;;;;48.25;26.75;;;2.80;94.10;;;;;;5051995;28;20439;-73
2021/03/18 02:30:02;;;;;;;58.13;26.50;;;2.90;94.10;;;;;;5051364;28;20032;-73
2021/03/18 02:33:05;;;;;;;47.22;26.52;;;2.90;94.10;;;;;;5050886;28;20883;-72
2021/03/18 02:35:33;;;;;;;51.17;28.27;;;2.80;94.00;;;;;;5052868;28;20032;-73
2021/03/18 02:38:13;;;;;;;51.67;28.20;;;2.80;94.10;;;;;;5051546;28;20433;-73
2021/03/18 02:40:48;;;;;;;51.13;27.42;;;2.70;94.20;;;;;;5050919;28;20033;-73
2021/03/18 02:43:16;;;;;;;54.25;28.55;;;2.70;94.20;;;;;;5051230;28;20056;-73
2021/03/18 02:45:47;;;;;;;50.45;28.60;;;2.70;94.30;;;;;;5051257;28;20361;-74
2021/03/18 02:48:34;;;;;;;52.47;28.67;;;2.70;94.30;;;;;;5051315;28;20086;-73
2021/03/18 02:51:01;;;;;;;55.95;29.02;;;2.70;94.30;;;;;;5050331;28;20025;-73
2021/03/18 02:53:30;;;;;;;63.55;33.15;;;2.70;94.40;;;;;;5051300;28;20036;-73
2021/03/18 02:55:58;;;;;;;53.90;30.98;;;2.70;94.40;;;;;;5050877;28;20022;-74
2021/03/18 02:58:29;;;;;;;58.47;31.48;;;2.70;94.50;;;;;;5051196;28;20025;-73
2021/03/18 03:00:57;;;;;;;64.30;33.88;;;2.70;94.70;;;;;;5050749;28;20438;-72
2021/03/18 03:03:24;;;;;;;58.75;31.85;;;2.80;94.60;;;;;;5051180;28;20112;-73
2021/03/18 03:05:54;;;;;;;68.88;33.60;;;2.80;94.60;;;;;;5053842;28;20033;-73
2021/03/18 03:08:24;;;;;;;64.00;33.33;;;2.80;94.70;;;;;;5054684;28;20020;-73
2021/03/18 03:10:54;;;;;;;67.05;34.58;;;2.90;94.60;;;;;;5056415;28;20052;-73
2021/03/18 03:13:21;;;;;;;69.03;36.53;;;2.90;94.70;;;;;;5054501;28;20064;-74
2021/03/18 03:15:49;;;;;;;73.78;35.95;;;2.90;94.70;;;;;;5055061;28;20501;-74
2021/03/18 03:18:17;;;;;;;73.60;35.60;;;2.90;94.60;;;;;;5054103;28;20072;-73
2021/03/18 03:20:44;;;;;;;73.68;35.25;;;2.90;94.50;;;;;;5054931;28;20494;-74
2021/03/18 03:23:10;;;;;;;79.13;36.92;;;2.90;94.50;;;;;;5054370;28;20029;-73
2021/03/18 03:25:38;;;;;;;72.68;36.50;;;2.90;94.60;;;;;;5054582;28;20033;-73
2021/03/18 03:28:10;;;;;;;77.05;35.30;;;3.00;94.60;;;;;;5054605;28;20387;-74
2021/03/18 03:30:37;;;;;;;71.10;35.10;;;2.90;94.50;;;;;;5054447;28;20108;-73
2021/03/18 03:33:08;;;;;;;85.22;37.10;;;3.00;94.50;;;;;;5054216;28;20368;-73
2021/03/18 03:35:35;;;;;;;78.82;37.42;;;3.00;94.50;;;;;;5054304;28;20021;-74
2021/03/18 03:38:02;;;;;;;96.50;40.72;;;3.00;94.40;;;;;;5055722;28;20032;-74
2021/03/18 03:40:27;;;;;;;114.47;45.13;;;3.00;94.40;;;;;;5054289;28;20422;-74
2021/03/18 03:42:54;;;;;;;132.07;51.85;;;3.00;94.50;;;;;;5055261;28;20024;-73
2021/03/18 03:45:20;;;;;;;123.45;47.83;;;3.00;94.50;;;;;;5053779;28;20029;-74
2021/03/18 03:47:47;;;;;;;101.70;43.55;;;3.00;94.50;;;;;;5055874;28;20033;-74
2021/03/18 03:50:25;;;;;;;98.35;42.40;;;3.00;94.50;;;;;;5054598;28;20064;-73
2021/03/18 03:53:17;;;;;;;89.75;40.72;;;3.00;94.80;;;;;;5043141;28;20528;-71
2021/03/18 03:55:46;;;;;;;81.38;39.15;;;3.00;94.40;;;;;;5054138;28;20037;-73
2021/03/18 03:58:36;;;;;;;87.05;38.55;;;3.00;94.40;;;;;;5054725;28;20025;-73
2021/03/18 04:01:07;;;;;;;91.32;39.03;;;3.00;94.40;;;;;;5053351;28;20029;-73
2021/03/18 04:03:35;;;;;;;81.57;36.75;;;3.00;94.40;;;;;;5054981;28;20061;-73
2021/03/18 04:06:03;;;;;;;96.40;36.72;;;3.00;94.50;;;;;;5053156;28;20045;-74
2021/03/18 04:08:30;;;;;;;93.95;37.75;;;3.00;94.40;;;;;;5053782;28;20029;-73
2021/03/18 04:10:58;;;;;;;91.60;38.15;;;2.90;94.40;;;;;;5053650;28;20032;-73
2021/03/18 04:13:27;;;;;;;77.43;35.45;;;2.90;94.30;;;;;;5053079;28;20035;-72
2021/03/18 04:15:54;;;;;;;78.03;35.70;;;2.90;94.40;;;;;;5054907;28;20045;-73
2021/03/18 04:18:21;;;;;;;95.25;36.58;;;2.90;94.40;;;;;;5052406;28;20070;-74
2021/03/18 04:20:48;;;;;;;92.05;35.97;;;2.90;94.40;;;;;;5053623;28;20066;-74
2021/03/18 04:23:15;;;;;;;101.03;34.30;;;2.90;94.50;;;;;;5053202;28;20040;-73
2021/03/18 04:25:41;;;;;;;95.82;36.55;;;3.00;94.40;;;;;;5053030;28;20116;-73
2021/03/18 04:28:11;;;;;;;83.63;34.88;;;2.90;94.30;;;;;;5053745;28;20409;-72
2021/03/18 04:30:39;;;;;;;97.13;34.28;;;2.90;94.30;;;;;;5053423;28;20029;-73
2021/03/18 04:33:06;;;;;;;91.53;34.88;;;2.90;94.20;;;;;;5053217;28;20060;-72
2021/03/18 04:35:33;;;;;;;102.53;35.65;;;2.90;94.40;;;;;;5052650;28;20021;-73
2021/03/18 04:38:00;;;;;;;105.88;37.70;;;2.90;94.30;;;;;;5053758;28;20116;-73
2021/03/18 04:40:26;;;;;;;90.82;34.45;;;2.90;94.40;;;;;;5052636;28;20033;-73
2021/03/18 04:42:52;;;;;;;86.78;36.13;;;2.90;94.20;;;;;;5051755;28;20078;-72
2021/03/18 04:45:20;;;;;;;93.82;36.03;;;2.90;94.30;;;;;;5037795;28;20020;-74
2021/03/18 04:47:48;;;;;;;109.57;36.28;;;2.80;94.30;;;;;;5053016;28;20029;-72
2021/03/18 04:50:19;;;;;;;95.75;34.30;;;2.90;94.50;;;;;;5049523;28;20098;-72
2021/03/18 04:52:45;;;;;;;95.65;33.53;;;2.80;94.40;;;;;;5052403;28;20537;-74
2021/03/18 04:55:12;;;;;;;88.70;32.08;;;2.80;94.30;;;;;;5052059;28;20112;-75
2021/03/18 04:57:43;;;;;;;105.40;36.17;;;2.80;94.40;;;;;;5052459;28;20029;-76
2021/03/18 05:00:10;;;;;;;108.93;33.67;;;2.80;94.50;;;;;;5052636;28;20068;-74
2021/03/18 05:02:38;;;;;;;91.95;34.85;;;2.80;94.50;;;;;;5052739;28;20029;-73
2021/03/18 05:05:07;;;;;;;100.93;35.40;;;2.80;94.50;;;;;;5039738;28;20483;-75
2021/03/18 05:07:33;;;;;;;94.15;31.60;;;2.90;94.70;;;;;;5054033;28;20107;-75
2021/03/18 05:09:58;;;;;;;108.05;34.63;;;2.90;94.70;;;;;;5051984;28;20017;-75
2021/03/18 05:12:25;;;;;;;92.10;31.10;;;2.90;94.80;;;;;;5052196;28;20120;-76
2021/03/18 05:14:51;;;;;;;88.43;31.60;;;3.00;94.80;;;;;;5052248;28;20060;-75
2021/03/18 05:17:18;;;;;;;86.15;30.58;;;3.00;94.70;;;;;;5053357;28;20017;-75
2021/03/18 05:19:44;;;;;;;83.75;29.73;;;3.00;94.60;;;;;;5052507;28;20112;-75
2021/03/18 05:22:10;;;;;;;90.15;29.75;;;3.00;94.60;;;;;;5052286;28;20049;-74
2021/03/18 05:24:40;;;;;;;97.03;29.25;;;3.10;94.60;;;;;;5052550;28;20033;-74
2021/03/18 05:27:06;;;;;;;84.25;26.20;;;3.10;94.50;;;;;;5052758;28;20024;-74
2021/03/18 05:29:32;;;;;;;81.55;24.88;;;3.10;94.40;;;;;;5052129;28;20032;-74
2021/03/18 05:31:58;;;;;;;84.75;26.52;;;3.10;94.40;;;;;;5041032;28;20025;-75
2021/03/18 05:34:25;;;;;;;89.43;27.15;;;3.10;94.30;;;;;;5051685;28;20059;-75
2021/03/18 05:36:50;;;;;;;88.53;26.77;;;3.10;94.40;;;;;;5042266;28;20051;-75
2021/03/18 05:39:16;;;;;;;89.50;24.73;;;3.10;94.30;;;;;;5047020;28;20025;-75
2021/03/18 05:41:43;;;;;;;91.45;26.05;;;3.10;94.20;;;;;;5046010;28;20017;-75
2021/03/18 05:44:09;;;;;;;69.65;21.65;;;3.10;94.10;;;;;;5044955;28;20472;-75
2021/03/18 05:46:36;;;;;;;72.60;21.30;;;3.10;94.10;;;;;;5042662;28;20025;-75
2021/03/18 05:49:02;;;;;;;64.88;18.58;;;3.00;94.00;;;;;;5045556;28;20025;-75
2021/03/18 05:51:32;;;;;;;64.22;18.02;;;3.00;94.00;;;;;;5049293;28;20048;-75
2021/03/18 05:53:58;;;;;;;62.30;18.85;;;3.00;94.00;;;;;;5049718;28;20029;-74
2021/03/18 05:56:24;;;;;;;62.95;19.98;;;3.00;94.00;;;;;;5045518;28;20039;-74
2021/03/18 05:58:51;;;;;;;87.20;22.95;;;3.00;94.00;;;;;;5045451;28;20025;-75
2021/03/18 06:01:18;;;;;;;73.07;22.42;;;3.00;94.00;;;;;;5048328;28;20107;-75
2021/03/18 06:03:45;;;;;;;80.60;24.75;;;3.00;94.00;;;;;;5043491;28;20029;-75
2021/03/18 06:06:12;;;;;;;82.10;25.55;;;3.10;94.10;;;;;;5048482;28;20132;-75
2021/03/18 06:08:38;;;;;;;61.20;21.60;;;3.10;94.10;;;;;;5051093;28;20029;-75
2021/03/18 06:11:07;;;;;;;72.28;22.52;;;3.10;94.20;;;;;;5047631;28;20029;-75
2021/03/18 06:13:34;;;;;;;66.57;22.27;;;3.10;94.20;;;;;;5054692;28;20029;-75
2021/03/18 06:16:05;;;;;;;68.30;20.85;;;3.10;94.10;;;;;;5043046;28;20083;-75
2021/03/18 06:18:34;;;;;;;71.35;23.48;;;3.20;94.20;;;;;;5035075;28;20029;-75
2021/03/18 06:21:00;;;;;;;58.83;20.10;;;3.20;94.40;;;;;;5034555;28;20491;-74
2021/03/18 06:23:27;;;;;;;60.88;20.73;;;3.30;94.50;;;;;;5048271;28;20059;-70
2021/03/18 06:25:53;;;;;;;64.15;20.45;;;3.40;94.30;;;;;;5044376;28;20028;-70
2021/03/18 06:28:23;;;;;;;62.13;21.40;;;3.40;94.20;;;;;;5042682;28;20038;-70
2021/03/18 06:31:05;;;;;;;57.55;22.27;;;3.40;94.30;;;;;;5038622;28;20029;-72
2021/03/18 06:33:33;;;;;;;59.92;22.35;;;3.40;94.10;;;;;;5047730;28;20040;-67
2021/03/18 06:35:59;;;;;;;57.13;21.23;;;3.50;94.10;;;;;;5039542;28;20030;-68
2021/03/18 06:38:27;;;;;;;66.65;21.35;;;3.60;94.10;;;;;;5041574;28;20051;-69
2021/03/18 06:40:53;;;;;;;61.85;21.30;;;3.60;94.30;;;;;;5050563;28;20078;-69
2021/03/18 06:43:43;;;;;;;69.22;20.90;;;3.80;94.50;;;;;;5052225;28;20460;-70
2021/03/18 06:46:20;;;;;;;59.10;19.70;;;3.90;94.60;;;;;;5043187;28;20104;-67
2021/03/18 06:48:47;;;;;;;67.53;20.77;;;4.00;94.20;;;;;;5050984;28;20087;-66
2021/03/18 06:51:25;;;;;;;71.88;20.20;;;4.10;94.20;;;;;;5055795;28;20104;-68
2021/03/18 06:53:53;;;;;;;53.35;20.92;;;4.20;94.10;;;;;;5049743;28;20048;-68
2021/03/18 06:56:21;;;;;;;61.42;20.65;;;4.20;94.00;;;;;;5053070;28;20068;-67
2021/03/18 06:58:47;;;;;;;53.25;18.35;;;4.30;93.70;;;;;;5053354;28;20018;-67
2021/03/18 07:01:13;;;;;;;62.40;20.63;;;4.40;93.80;;;;;;5054203;28;20033;-67
2021/03/18 07:03:39;;;;;;;68.20;19.13;;;4.50;93.60;;;;;;5056552;28;20158;-67
2021/03/18 07:06:08;;;;;;;69.05;23.65;;;4.70;93.70;;;;;;5055871;28;20068;-68
2021/03/18 07:08:34;;;;;;;59.10;20.33;;;4.80;93.20;;;;;;5055922;28;20075;-68
2021/03/18 07:11:14;;;;;;;53.35;18.90;;;4.90;93.00;;;;;;5055736;28;20566;-68
2021/03/18 07:13:42;;;;;;;60.60;22.90;;;4.90;92.50;;;;;;5054932;28;20123;-67
2021/03/18 07:16:10;;;;;;;73.85;24.75;;;4.90;92.20;;;;;;5055016;28;20029;-68
2021/03/18 07:18:36;;;;;;;67.22;27.25;;;4.90;92.00;;;;;;5056203;28;20021;-68
2021/03/18 07:21:12;;;;;;;72.13;25.30;;;4.90;91.80;;;;;;5054725;28;20037;-68
2021/03/18 07:23:39;;;;;;;;;;;4.90;91.80;;;;;;5055226;28;20044;-68
2021/03/18 07:26:16;;;;;;;61.63;22.20;;;5.00;91.90;;;;;;5055817;28;19919;-68
2021/03/18 07:28:49;;;;;;;61.83;21.75;;;4.90;91.60;;;;;;5054791;28;20036;-67
2021/03/18 07:31:16;;;;;;;61.33;22.48;;;4.90;91.50;;;;;;5054551;28;20033;-68
2021/03/18 07:33:43;;;;;;;63.22;21.02;;;4.90;91.80;;;;;;5054273;28;20025;-68
2021/03/18 07:36:10;;;;;;;55.00;20.90;;;5.00;92.10;;;;;;5056041;28;20048;-68
2021/03/18 07:38:37;;;;;;;72.75;23.33;;;5.20;92.30;;;;;;5054086;28;20025;-68
2021/03/18 07:41:13;;;;;;;61.35;20.35;;;5.30;92.10;;;;;;5055790;28;20028;-68
2021/03/18 07:43:46;;;;;;;63.30;18.58;;;5.40;91.50;;;;;;5053415;28;20029;-69
2021/03/18 07:46:14;;;;;;;52.90;18.83;;;5.40;90.90;;;;;;5055683;28;20079;-66
2021/03/18 07:48:43;;;;;;;57.72;20.00;;;5.40;90.60;;;;;;5055745;28;20104;-68
2021/03/18 07:51:09;;;;;;;64.68;20.70;;;5.40;90.40;;;;;;5046227;28;20041;-68
2021/03/18 07:53:36;;;;;;;41.45;18.50;;;5.30;90.00;;;;;;5035687;28;20064;-68
2021/03/18 07:56:02;;;;;;;53.28;18.70;;;5.20;90.00;;;;;;5053639;28;20098;-67
2021/03/18 07:58:42;;;;;;;57.65;20.67;;;5.10;90.20;;;;;;5046593;28;20044;-69
2021/03/18 08:01:28;;;;;;;57.78;20.85;;;5.10;90.40;;;;;;5049747;28;20091;-68
2021/03/18 08:03:54;;;;;;;60.97;20.73;;;5.20;90.60;;;;;;5053512;28;20067;-68
2021/03/18 08:06:41;;;;;;;61.92;18.98;;;5.30;90.80;;;;;;5051575;28;20094;-69
2021/03/18 08:09:12;;;;;;;61.90;19.63;;;5.30;90.50;;;;;;5045584;28;20026;-69
2021/03/18 08:11:38;;;;;;;56.08;20.33;;;5.40;90.80;;;;;;5049830;28;20028;-68
2021/03/18 08:14:20;;;;;;;67.50;19.10;;;5.60;91.10;;;;;;5049401;28;20029;-68
2021/03/18 08:16:45;;;;;;;58.70;20.38;;;5.80;91.00;;;;;;5048811;28;20021;-69
2021/03/18 08:19:13;;;;;;;62.65;19.88;;;6.10;90.80;;;;;;5044376;28;20135;-70
2021/03/18 08:21:43;;;;;;;57.67;20.85;;;6.20;90.40;;;;;;5046470;28;20567;-70
2021/03/18 08:24:14;;;;;;;67.10;19.65;;;6.40;90.50;;;;;;5038879;28;20025;-71
2021/03/18 08:26:44;;;;;;;57.63;18.50;;;6.50;89.80;;;;;;5042845;28;20041;-72
2021/03/18 08:29:19;;;;;;;61.10;18.95;;;6.60;89.70;;;;;;5047704;28;20024;-71
2021/03/18 08:31:49;;;;;;;63.47;18.67;;;6.80;89.30;;;;;;5043707;28;20041;-72
2021/03/18 08:34:16;;;;;;;56.47;17.52;;;7.00;89.10;;;;;;5037315;28;20037;-69
2021/03/18 08:36:51;;;;;;;61.47;18.92;;;7.20;88.40;;;;;;5036245;28;20029;-70
2021/03/18 08:39:35;;;;;;;58.63;18.17;;;7.30;86.70;;;;;;5037761;28;20124;-71
2021/03/18 08:42:01;;;;;;;59.50;18.05;;;7.40;86.20;;;;;;5043489;28;20060;-72
2021/03/18 08:44:41;;;;;;;63.80;18.05;;;7.60;86.30;;;;;;5043676;28;20029;-67
2021/03/18 08:47:11;;;;;;;60.70;18.63;;;7.80;85.40;;;;;;5040340;28;20025;-69
2021/03/18 08:49:37;;;;;;;54.30;16.83;;;8.00;85.00;;;;;;5037510;28;20130;-70
2021/03/18 08:52:11;;;;;;;52.85;18.48;;;8.20;84.30;;;;;;5043134;28;20049;-67
2021/03/18 08:54:37;;;;;;;55.85;16.92;;;8.40;83.30;;;;;;5041126;28;20025;-68
2021/03/18 08:57:06;;;;;;;64.95;16.83;;;8.60;82.70;;;;;;5044311;28;20463;-67
2021/03/18 08:59:32;;;;;;;62.63;18.27;;;8.90;81.80;;;;;;5044260;28;20037;-67
2021/03/18 09:02:09;;;;;;;46.35;16.30;;;9.20;81.70;;;;;;5045414;28;20033;-68
2021/03/18 09:04:49;;;;;;;54.17;17.50;;;9.40;80.20;;;;;;5039542;28;20037;-68
2021/03/18 09:07:28;;;;;;;60.60;17.20;;;9.70;79.20;;;;;;5040513;28;20056;-67
2021/03/18 09:10:09;;;;;;;54.83;17.83;;;9.90;78.40;;;;;;5038980;28;20040;-69
2021/03/18 09:12:53;;;;;;;63.63;17.13;;;10.40;78.00;;;;;;5037196;28;20041;-70
2021/03/18 09:15:29;;;;;;;51.75;15.38;;;10.60;75.50;;;;;;5036757;28;20046;-69
2021/03/18 09:18:15;;;;;;;54.00;15.70;;;10.70;73.80;;;;;;5037444;28;20033;-72
2021/03/18 09:20:44;;;;;;;65.13;17.02;;;10.80;72.90;;;;;;5036330;28;20046;-70
2021/03/18 09:23:24;;;;;;;51.95;16.38;;;10.90;72.20;;;;;;5040544;28;20029;-75
2021/03/18 09:25:53;;;;;;;50.45;17.35;;;10.90;71.70;;;;;;5036840;28;20037;-70
2021/03/18 09:28:23;;;;;;;54.42;14.55;;;11.20;71.60;;;;;;5045204;28;20069;-70
2021/03/18 09:30:55;;;;;;;66.63;20.98;;;11.30;70.10;;;;;;5042565;28;20044;-71
2021/03/18 09:33:39;;;;;;;70.18;20.98;;;11.30;68.80;;;;;;5038100;28;20045;-72
2021/03/18 09:36:14;;;;;;;66.78;20.70;;;11.30;68.10;;;;;;5040328;28;20065;-70
2021/03/18 09:39:01;;;;;;;71.18;19.95;;;11.10;67.80;;;;;;5046677;28;20097;-70
2021/03/18 09:41:32;;;;;;;53.58;19.80;;;10.90;67.70;;;;;;5044876;28;20049;-70
2021/03/18 09:44:04;;;;;;;48.47;17.55;;;10.60;67.80;;;;;;5049511;28;20025;-69
2021/03/18 09:46:33;;;;;;;56.80;18.00;;;10.50;67.50;;;;;;5046799;28;20033;-71
2021/03/18 09:49:10;;;;;;;48.22;17.10;;;10.40;68.20;;;;;;5041550;28;20120;-85
2021/03/18 09:51:47;;;;;;;50.22;17.50;;;10.50;68.20;;;;;;5050586;28;20061;-79
2021/03/18 09:54:14;;;;;;;52.55;17.00;;;10.40;67.20;;;;;;5042889;28;20040;-78
2021/03/18 09:56:45;;;;;;;57.05;17.65;;;10.30;67.30;;;;;;5001517;28;20030;-71
2021/03/18 09:59:24;;;;;;;49.58;16.13;;;10.30;67.60;;;;;;5030359;28;20033;-76
2021/03/18 10:01:51;;;;;;;55.70;17.00;;;10.30;67.20;;;;;;5040089;28;20033;-74
2021/03/18 10:04:20;;;;;;;46.10;16.52;;;10.30;67.30;;;;;;5025981;28;20045;-74
2021/03/18 10:07:06;;;;;;;51.28;18.20;;;10.30;67.40;;;;;;5037611;28;20041;-75
2021/03/18 10:09:41;;;;;;;58.38;18.48;;;10.40;67.80;;;;;;5038000;28;20029;-74
2021/03/18 10:12:11;;;;;;;57.30;17.38;;;10.50;67.10;;;;;;5042559;28;20394;-80
2021/03/18 10:15:14;;;;;;;58.20;16.98;;;10.40;66.40;;;;;;5036298;28;20041;-77
2021/03/18 10:17:44;;;;;;;55.22;16.65;;;10.10;66.40;;;;;;5023505;28;20037;-78
2021/03/18 10:20:35;;;;;;;48.35;16.50;;;10.10;67.00;;;;;;5042139;28;20037;-79
2021/03/18 10:23:11;;;;;;;52.20;16.75;;;10.00;67.10;;;;;;5047885;28;20029;-76
2021/03/18 10:25:39;;;;;;;52.70;17.55;;;9.80;66.80;;;;;;5030568;28;20068;-76
2021/03/18 10:28:11;;;;;;;51.47;15.93;;;9.80;67.20;;;;;;5047919;28;20033;-76
2021/03/18 10:30:50;;;;;;;56.95;16.45;;;9.70;67.60;;;;;;5041932;28;20041;-73
2021/03/18 10:33:21;;;;;;;51.92;18.33;;;9.80;67.70;;;;;;5043561;28;20131;-73
2021/03/18 10:36:03;;;;;;;56.15;17.15;;;9.80;67.50;;;;;;5037792;28;20052;-76
2021/03/18 10:38:35;;;;;;;52.53;16.27;;;9.90;67.30;;;;;;5043568;28;20037;-74
2021/03/18 10:41:12;;;;;;;46.25;16.67;;;9.90;67.10;;;;;;5040798;28;20048;-75
2021/03/18 10:43:42;;;;;;;66.65;17.00;;;9.80;67.00;;;;;;5037665;28;20038;-74
2021/03/18 10:46:26;;;;;;;43.55;15.95;;;9.80;66.50;;;;;;5036649;28;20108;-76
2021/03/18 10:48:53;;;;;;;50.92;16.85;;;9.80;66.70;;;;;;5029287;28;20106;-71
2021/03/18 10:51:23;;;;;;;42.90;14.25;;;9.80;66.60;;;;;;5048316;28;20033;-74
2021/03/18 10:53:52;;;;;;;42.47;14.43;;;9.80;66.10;;;;;;5040333;28;20043;-70
2021/03/18 10:56:30;;;;;;;42.70;15.00;;;9.70;65.90;;;;;;5023603;28;20483;-69
2021/03/18 10:59:16;;;;;;;45.47;16.02;;;9.70;65.80;;;;;;5041735;28;20088;-71
2021/03/18 11:02:04;;;;;;;44.72;17.10;;;9.60;66.40;;;;;;5024757;28;20038;-70
2021/03/18 11:04:31;;;;;;;45.25;15.15;;;9.70;66.20;;;;;;5043366;28;20033;-70
2021/03/18 11:07:00;;;;;;;34.58;12.10;;;9.80;65.50;;;;;;5047216;28;20041;-69
2021/03/18 11:09:30;;;;;;;41.35;12.07;;;9.70;65.70;;;;;;5027677;28;20032;-75
2021/03/18 11:12:03;;;;;;;37.90;12.93;;;9.80;65.00;;;;;;5041460;28;20507;-72
2021/03/18 11:14:34;;;;;;;40.35;13.15;;;9.90;65.20;;;;;;5047912;28;20041;-71
2021/03/18 11:17:10;;;;;;;36.35;12.32;;;10.20;65.50;;;;;;5038562;28;20057;-72
2021/03/18 11:19:38;;;;;;;33.50;11.00;;;10.50;65.20;;;;;;5042399;28;20036;-80
2021/03/18 11:22:06;;;;;;;36.38;12.10;;;10.80;64.40;;;;;;5037861;28;20476;-74
2021/03/18 11:24:33;;;;;;;31.35;11.65;;;10.90;63.70;;;;;;5030528;28;20036;-72
2021/03/18 11:27:13;;;;;;;32.53;10.68;;;11.10;63.00;;;;;;5038786;28;20036;-75
2021/03/18 11:30:00;;;;;;;32.72;10.73;;;11.20;62.80;;;;;;5023617;28;20037;-75
2021/03/18 11:32:30;;;;;;;39.30;11.35;;;11.40;62.70;;;;;;5030570;28;20550;-74
2021/03/18 11:35:22;;;;;;;36.47;11.70;;;11.50;62.00;;;;;;5047732;28;20036;-80
2021/03/18 11:37:49;;;;;;;25.85;10.10;;;11.80;62.20;;;;;;5033141;28;20037;-74
2021/03/18 11:40:28;;;;;;;34.72;10.43;;;12.00;61.50;;;;;;5038145;28;20038;-75
2021/03/18 11:42:55;;;;;;;29.65;9.50;;;12.20;61.00;;;;;;5035693;28;20028;-75
2021/03/18 11:45:21;;;;;;;27.70;10.32;;;12.40;60.60;;;;;;5042270;28;20040;-75
2021/03/18 11:47:49;;;;;;;23.92;9.32;;;12.70;60.50;;;;;;5042631;28;20103;-74
2021/03/18 11:50:21;;;;;;;34.45;10.45;;;13.00;58.90;;;;;;5033374;28;20055;-78
2021/03/18 11:52:51;;;;;;;37.38;9.73;;;13.10;58.00;;;;;;5029920;28;20045;-84
2021/03/18 11:55:20;;;;;;;25.45;8.85;;;13.10;57.60;;;;;;5044697;28;20025;-89
2021/03/18 11:57:47;;;;;;;29.65;9.68;;;13.00;56.60;;;;;;5043636;28;20035;-84
2021/03/18 12:00:17;;;;;;;30.75;9.00;;;13.00;56.90;;;;;;5046814;28;20017;-81
2021/03/18 12:02:43;;;;;;;27.98;9.93;;;13.10;56.80;;;;;;5051658;28;20025;-80
2021/03/18 12:05:13;;;;;;;29.83;9.95;;;13.30;56.80;;;;;;5033314;28;20055;-78
2021/03/18 12:07:43;;;;;;;30.67;10.23;;;13.40;55.90;;;;;;5044021;28;20391;-73
2021/03/18 12:10:10;;;;;;;28.65;9.27;;;13.40;55.10;;;;;;5053697;28;20032;-83
2021/03/18 12:12:37;;;;;;;29.88;10.27;;;12.90;54.30;;;;;;5045398;28;20067;-80
2021/03/18 12:15:06;;;;;;;33.63;10.48;;;12.30;54.30;;;;;;5035582;28;20037;-76
2021/03/18 12:17:32;;;;;;;29.35;10.85;;;11.80;55.00;;;;;;5041779;28;20044;-77
2021/03/18 12:19:58;;;;;;;26.90;10.05;;;11.50;56.20;;;;;;5045329;28;20091;-78
2021/03/18 12:22:24;;;;;;;25.80;9.68;;;11.60;57.40;;;;;;5040137;28;20028;-79
2021/03/18 12:24:50;;;;;;;24.08;9.48;;;11.80;57.30;;;;;;5044396;28;20036;-84
2021/03/18 12:27:15;;;;;;;33.40;11.25;;;11.90;57.00;;;;;;5044776;28;20034;-72
2021/03/18 12:29:42;;;;;;;33.88;11.25;;;11.90;56.90;;;;;;5039905;28;20049;-84
2021/03/18 12:32:08;;;;;;;29.88;11.02;;;11.90;57.00;;;;;;5042616;28;20120;-80
2021/03/18 12:34:37;;;;;;;37.55;11.00;;;11.90;56.90;;;;;;5040181;28;20109;-83
2021/03/18 12:37:02;;;;;;;30.83;11.32;;;11.90;56.90;;;;;;5043866;28;20029;-79
2021/03/18 12:39:28;;;;;;;30.70;10.57;;;11.70;56.10;;;;;;5038985;28;20025;-80
2021/03/18 12:41:56;;;;;;;39.15;11.07;;;11.40;56.10;;;;;;5041144;28;20057;-79
2021/03/18 12:44:22;;;;;;;30.30;9.23;;;11.00;56.10;;;;;;5040844;28;20029;-79
2021/03/18 12:46:48;;;;;;;33.20;9.75;;;10.60;55.90;;;;;;5037773;28;20025;-83
2021/03/18 12:49:14;;;;;;;31.98;10.18;;;10.30;56.40;;;;;;5034108;28;20057;-81
2021/03/18 12:51:40;;;;;;;33.15;10.05;;;10.10;56.90;;;;;;5038989;28;20387;-85